Time,TemperatureF,DewpointF,PressureIn,WindDirection,WindDirectionDegrees,WindSpeedMPH,WindSpeedGustMPH,Humidity,HourlyPrecipIn,Conditions,Clouds,dailyrainin,SoftwareType,DateUTC
2014-04-21 00:00:00,62.8,57.6,27.40,West,270,3.0,-999.0,83,-99.99,,,0.00,meteohub,2014-04-21 04:00:00,
2014-04-21 00:01:00,63.0,57.7,27.39,NW,315,4.0,-999.0,83,-99.99,,,0.00,meteohub,2014-04-21 04:01:00,
2014-04-21 00:02:00,62.8,57.9,27.39,NW,315,8.0,-999.0,84,-99.99,,,0.00,meteohub,2014-04-21 04:02:00,
2014-04-21 00:07:00,62.4,57.6,27.39,WNW,293,6.0,-999.0,84,-99.99,,,0.00,meteohub,2014-04-21 04:07:00,
2014-04-21 00:12:00,62.4,57.6,27.39,NE,45,3.0,-999.0,84,-99.99,,,0.00,meteohub,2014-04-21 04:12:00,
2014-04-21 00:17:00,61.9,57.0,27.40,West,270,1.0,-999.0,84,-99.99,,,0.00,meteohub,2014-04-21 04:17:00,
2014-04-21 00:22:00,61.9,57.4,27.40,West,270,3.0,-999.0,85,-99.99,,,0.00,meteohub,2014-04-21 04:22:00,
2014-04-21 00:27:00,61.7,57.2,27.40,North,0,4.0,-999.0,85,-99.99,,,0.00,meteohub,2014-04-21 04:27:00,
2014-04-21 00:32:00,61.5,57.0,27.40,NW,315,4.0,-999.0,85,-99.99,,,0.00,meteohub,2014-04-21 04:32:00,
2014-04-21 00:37:00,61.5,57.0,27.40,NW,315,4.0,-999.0,85,-99.99,,,0.00,meteohub,2014-04-21 04:37:00,
2014-04-21 00:42:00,61.3,57.2,27.40,West,270,3.0,-999.0,86,-99.99,,,0.00,meteohub,2014-04-21 04:42:00,
2014-04-21 00:47:00,61.7,57.4,27.40,West,270,5.0,-999.0,86,-99.99,,,0.00,meteohub,2014-04-21 04:47:00,
2014-04-21 00:52:00,61.5,57.4,27.40,West,270,6.0,-999.0,86,-99.99,,,0.00,meteohub,2014-04-21 04:52:00,
2014-04-21 00:57:00,61.5,57.4,27.40,West,270,5.0,-999.0,86,-99.99,,,0.00,meteohub,2014-04-21 04:57:00,
2014-04-21 01:02:00,61.3,57.2,27.39,West,270,3.0,-999.0,86,-99.99,,,0.00,meteohub,2014-04-21 05:02:00,
2014-04-21 01:07:00,61.5,57.4,27.39,SW,225,4.0,-999.0,86,-99.99,,,0.00,meteohub,2014-04-21 05:07:00,
2014-04-21 01:12:00,61.9,57.6,27.39,South,180,4.0,-999.0,86,-99.99,,,0.00,meteohub,2014-04-21 05:12:00,
2014-04-21 01:17:00,61.7,57.4,27.39,East,90,4.0,-999.0,86,-99.99,,,0.00,meteohub,2014-04-21 05:17:00,
2014-04-21 01:22:00,61.9,57.6,27.39,NW,315,5.0,-999.0,86,-99.99,,,0.00,meteohub,2014-04-21 05:22:00,
2014-04-21 01:27:00,61.7,57.4,27.39,NW,315,2.0,-999.0,86,-99.99,,,0.00,meteohub,2014-04-21 05:27:00,
2014-04-21 01:32:00,61.7,57.7,27.38,West,270,3.0,-999.0,87,-99.99,,,0.00,meteohub,2014-04-21 05:32:00,
2014-04-21 01:38:00,61.7,57.7,27.38,NW,315,5.0,-999.0,87,-99.99,,,0.00,meteohub,2014-04-21 05:38:00,
2014-04-21 01:43:00,61.9,57.9,27.37,West,270,4.0,-999.0,87,-99.99,,,0.00,meteohub,2014-04-21 05:43:00,
2014-04-21 01:48:00,61.7,57.4,27.37,NE,45,3.0,-999.0,86,-99.99,,,0.00,meteohub,2014-04-21 05:48:00,
2014-04-21 01:53:00,61.5,57.6,27.37,North,0,3.0,-999.0,87,-99.99,,,0.00,meteohub,2014-04-21 05:53:00,
2014-04-21 01:58:00,61.5,57.6,27.37,West,270,3.0,-999.0,87,-99.99,,,0.00,meteohub,2014-04-21 05:58:00,
2014-04-21 02:03:00,61.2,57.2,27.37,West,270,5.0,-999.0,87,-99.99,,,0.00,meteohub,2014-04-21 06:03:00,
2014-04-21 02:08:00,61.2,57.2,27.36,NW,315,4.0,-999.0,87,-99.99,,,0.00,meteohub,2014-04-21 06:08:00,
2014-04-21 02:13:00,60.8,57.2,27.36,North,0,6.0,-999.0,88,-99.99,,,0.00,meteohub,2014-04-21 06:13:00,
2014-04-21 02:18:00,60.8,57.2,27.36,West,270,4.0,-999.0,88,-99.99,,,0.00,meteohub,2014-04-21 06:18:00,
2014-04-21 02:23:00,60.6,57.0,27.36,West,270,5.0,-999.0,88,-99.99,,,0.00,meteohub,2014-04-21 06:23:00,
2014-04-21 02:28:00,60.4,57.2,27.36,West,270,4.0,-999.0,89,-99.99,,,0.00,meteohub,2014-04-21 06:28:00,
2014-04-21 02:33:00,60.3,57.0,27.36,North,0,4.0,-999.0,89,-99.99,,,0.00,meteohub,2014-04-21 06:33:00,
2014-04-21 02:38:00,60.1,57.2,27.36,West,270,4.0,-999.0,90,-99.99,,,0.00,meteohub,2014-04-21 06:38:00,
2014-04-21 02:43:00,60.1,57.2,27.35,NW,315,4.0,-999.0,90,-99.99,,,0.00,meteohub,2014-04-21 06:43:00,
2014-04-21 02:48:00,60.1,57.2,27.35,West,270,5.0,-999.0,90,-99.99,,,0.00,meteohub,2014-04-21 06:48:00,
2014-04-21 02:53:00,60.1,57.2,27.36,West,270,4.0,-999.0,90,-99.99,,,0.00,meteohub,2014-04-21 06:53:00,
2014-04-21 02:58:00,60.1,57.4,27.36,WNW,293,5.0,-999.0,91,-99.99,,,0.00,meteohub,2014-04-21 06:58:00,
2014-04-21 03:03:00,59.9,57.2,27.36,West,270,3.0,-999.0,91,-99.99,,,0.00,meteohub,2014-04-21 07:03:00,
2014-04-21 03:08:00,60.1,57.4,27.35,NW,315,4.0,-999.0,91,-99.99,,,0.00,meteohub,2014-04-21 07:08:00,
2014-04-21 03:13:00,60.3,57.6,27.36,NW,315,6.0,-999.0,91,-99.99,,,0.00,meteohub,2014-04-21 07:13:00,
2014-04-21 03:18:00,60.3,57.6,27.35,North,0,9.0,-999.0,91,-99.99,,,0.00,meteohub,2014-04-21 07:18:00,
2014-04-21 03:23:00,60.4,57.7,27.36,SW,225,2.0,-999.0,91,-99.99,,,0.00,meteohub,2014-04-21 07:23:00,
2014-04-21 03:28:00,60.4,57.7,27.35,West,270,3.0,-999.0,91,-99.99,,,0.00,meteohub,2014-04-21 07:28:00,
2014-04-21 03:33:00,60.4,57.7,27.35,NW,315,6.0,-999.0,91,-99.99,,,0.00,meteohub,2014-04-21 07:33:00,
2014-04-21 03:38:00,60.3,57.6,27.35,NW,315,5.0,-999.0,91,-99.99,,,0.00,meteohub,2014-04-21 07:38:00,
2014-04-21 03:43:00,60.3,57.6,27.35,NW,315,4.0,-999.0,91,-99.99,,,0.00,meteohub,2014-04-21 07:43:00,
2014-04-21 03:48:00,60.1,57.4,27.35,NW,315,7.0,-999.0,91,-99.99,,,0.00,meteohub,2014-04-21 07:48:00,
2014-04-21 03:53:00,60.1,57.7,27.35,West,270,7.0,-999.0,92,-99.99,,,0.00,meteohub,2014-04-21 07:53:00,
2014-04-21 03:58:00,60.3,57.9,27.35,NW,315,4.0,-999.0,92,-99.99,,,0.00,meteohub,2014-04-21 07:58:00,
2014-04-21 04:03:00,60.1,57.7,27.35,West,270,4.0,-999.0,92,-99.99,,,0.00,meteohub,2014-04-21 08:03:00,
2014-04-21 04:08:00,60.3,57.9,27.35,NW,315,9.0,-999.0,92,-99.99,,,0.00,meteohub,2014-04-21 08:08:00,
2014-04-21 04:13:00,60.1,57.7,27.35,South,180,6.0,-999.0,92,-99.99,,,0.00,meteohub,2014-04-21 08:13:00,
2014-04-21 04:18:00,60.1,57.7,27.35,West,270,4.0,-999.0,92,-99.99,,,0.00,meteohub,2014-04-21 08:18:00,
2014-04-21 04:23:00,60.1,57.7,27.34,West,270,4.0,-999.0,92,-99.99,,,0.00,meteohub,2014-04-21 08:23:00,
2014-04-21 04:28:00,60.3,58.3,27.35,West,270,8.0,-999.0,93,-99.99,,,0.00,meteohub,2014-04-21 08:28:00,
2014-04-21 04:33:00,60.1,58.1,27.34,West,270,4.0,-999.0,93,-99.99,,,0.00,meteohub,2014-04-21 08:33:00,
2014-04-21 04:38:00,60.3,58.3,27.34,NW,315,6.0,-999.0,93,-99.99,,,0.00,meteohub,2014-04-21 08:38:00,
2014-04-21 04:43:00,59.9,57.9,27.34,West,270,4.0,-999.0,93,-99.99,,,0.00,meteohub,2014-04-21 08:43:00,
2014-04-21 04:48:00,60.1,58.1,27.34,West,270,7.0,-999.0,93,-99.99,,,0.00,meteohub,2014-04-21 08:48:00,
2014-04-21 04:53:00,59.9,57.9,27.34,West,270,3.0,-999.0,93,-99.99,,,0.00,meteohub,2014-04-21 08:53:00,
2014-04-21 04:58:00,59.9,57.9,27.34,North,0,6.0,-999.0,93,-99.99,,,0.00,meteohub,2014-04-21 08:58:00,
2014-04-21 05:03:00,59.7,57.7,27.34,West,270,8.0,-999.0,93,-99.99,,,0.00,meteohub,2014-04-21 09:03:00,
2014-04-21 05:09:00,59.9,58.1,27.34,NW,315,4.0,-999.0,94,-99.99,,,0.00,meteohub,2014-04-21 09:09:00,
2014-04-21 05:14:00,59.7,57.9,27.35,West,270,8.0,-999.0,94,-99.99,,,0.00,meteohub,2014-04-21 09:14:00,
2014-04-21 05:19:00,59.5,57.7,27.36,NW,315,3.0,-999.0,94,-99.99,,,0.00,meteohub,2014-04-21 09:19:00,
2014-04-21 05:24:00,59.7,57.9,27.36,West,270,5.0,-999.0,94,-99.99,,,0.00,meteohub,2014-04-21 09:24:00,
2014-04-21 05:29:00,59.5,57.7,27.36,West,270,4.0,-999.0,94,-99.99,,,0.00,meteohub,2014-04-21 09:29:00,
2014-04-21 05:34:00,59.2,57.4,27.35,North,0,4.0,-999.0,94,-99.99,,,0.00,meteohub,2014-04-21 09:34:00,
2014-04-21 05:39:00,59.4,57.6,27.35,West,270,4.0,-999.0,94,-99.99,,,0.00,meteohub,2014-04-21 09:39:00,
2014-04-21 05:44:00,59.2,57.7,27.35,West,270,5.0,-999.0,95,-99.99,,,0.00,meteohub,2014-04-21 09:44:00,
2014-04-21 05:49:00,59.4,57.9,27.35,North,0,4.0,-999.0,95,-99.99,,,0.00,meteohub,2014-04-21 09:49:00,
2014-04-21 05:54:00,59.0,57.6,27.35,NE,45,4.0,-999.0,95,-99.99,,,0.00,meteohub,2014-04-21 09:54:00,
2014-04-21 05:59:00,59.2,57.7,27.35,North,0,4.0,-999.0,95,-99.99,,,0.00,meteohub,2014-04-21 09:59:00,
2014-04-21 06:04:00,59.4,57.9,27.36,West,270,3.0,-999.0,95,-99.99,,,0.00,meteohub,2014-04-21 10:04:00,
2014-04-21 06:09:00,59.4,58.3,27.35,SW,225,3.0,-999.0,96,-99.99,,,0.00,meteohub,2014-04-21 10:09:00,
2014-04-21 06:14:00,59.5,58.5,27.35,West,270,5.0,-999.0,96,-99.99,,,0.00,meteohub,2014-04-21 10:14:00,
2014-04-21 06:19:00,59.5,58.5,27.35,West,270,4.0,-999.0,96,-99.99,,,0.00,meteohub,2014-04-21 10:19:00,
2014-04-21 06:24:00,59.5,58.5,27.35,West,270,4.0,-999.0,96,-99.99,,,0.00,meteohub,2014-04-21 10:24:00,
2014-04-21 06:29:00,59.5,58.5,27.36,North,0,3.0,-999.0,96,-99.99,,,0.00,meteohub,2014-04-21 10:29:00,
2014-04-21 06:34:00,59.5,58.5,27.36,North,0,3.0,-999.0,96,-99.99,,,0.00,meteohub,2014-04-21 10:34:00,
2014-04-21 06:39:00,59.4,58.3,27.36,West,270,4.0,-999.0,96,-99.99,,,0.00,meteohub,2014-04-21 10:39:00,
2014-04-21 06:44:00,59.0,57.9,27.36,West,270,3.0,-999.0,96,-99.99,,,0.00,meteohub,2014-04-21 10:44:00,
2014-04-21 06:49:00,59.0,57.6,27.36,West,270,4.0,-999.0,95,-99.99,,,0.00,meteohub,2014-04-21 10:49:00,
2014-04-21 06:54:00,59.0,57.6,27.36,NW,315,2.0,-999.0,95,-99.99,,,0.00,meteohub,2014-04-21 10:54:00,
2014-04-21 06:59:00,59.0,57.6,27.36,West,270,2.0,-999.0,95,-99.99,,,0.00,meteohub,2014-04-21 10:59:00,
2014-04-21 07:04:00,58.8,57.7,27.36,West,270,2.0,-999.0,96,-99.99,,,0.00,meteohub,2014-04-21 11:04:00,
2014-04-21 07:09:00,58.5,57.4,27.37,NW,315,4.0,-999.0,96,-99.99,,,0.00,meteohub,2014-04-21 11:09:00,
2014-04-21 07:14:00,58.6,57.6,27.36,West,270,2.0,-999.0,96,-99.99,,,0.00,meteohub,2014-04-21 11:14:00,
2014-04-21 07:19:00,58.8,57.7,27.37,West,270,2.0,-999.0,96,-99.99,,,0.00,meteohub,2014-04-21 11:19:00,
2014-04-21 07:24:00,58.8,57.7,27.37,SW,225,3.0,-999.0,96,-99.99,,,0.00,meteohub,2014-04-21 11:24:00,
2014-04-21 07:29:00,59.0,57.9,27.37,West,270,2.0,-999.0,96,-99.99,,,0.00,meteohub,2014-04-21 11:29:00,
2014-04-21 07:34:00,59.2,58.1,27.37,NW,315,2.0,-999.0,96,-99.99,,,0.00,meteohub,2014-04-21 11:34:00,
2014-04-21 07:39:00,59.4,58.3,27.37,West,270,2.0,-999.0,96,-99.99,,,0.00,meteohub,2014-04-21 11:39:00,
2014-04-21 07:44:00,59.5,58.5,27.37,West,270,2.0,-999.0,96,-99.99,,,0.00,meteohub,2014-04-21 11:44:00,
2014-04-21 07:49:00,59.9,58.8,27.37,West,270,2.0,-999.0,96,-99.99,,,0.00,meteohub,2014-04-21 11:49:00,
2014-04-21 07:54:00,60.3,59.2,27.37,NW,315,4.0,-999.0,96,-99.99,,,0.00,meteohub,2014-04-21 11:54:00,
2014-04-21 07:59:00,61.5,60.4,27.37,West,270,7.0,-999.0,96,-99.99,,,0.00,meteohub,2014-04-21 11:59:00,
2014-04-21 08:04:00,62.2,60.8,27.37,SW,225,3.0,-999.0,95,-99.99,,,0.00,meteohub,2014-04-21 12:04:00,
2014-04-21 08:09:00,63.3,61.5,27.37,North,0,4.0,-999.0,94,-99.99,,,0.00,meteohub,2014-04-21 12:09:00,
2014-04-21 08:14:00,64.4,61.7,27.37,West,270,3.0,-999.0,91,-99.99,,,0.00,meteohub,2014-04-21 12:14:00,
2014-04-21 08:19:00,64.8,61.2,27.37,West,270,3.0,-999.0,88,-99.99,,,0.00,meteohub,2014-04-21 12:19:00,
2014-04-21 08:24:00,65.3,61.0,27.37,West,270,4.0,-999.0,86,-99.99,,,0.00,meteohub,2014-04-21 12:24:00,
2014-04-21 08:29:00,66.6,61.5,27.37,West,270,5.0,-999.0,84,-99.99,,,0.00,meteohub,2014-04-21 12:29:00,
2014-04-21 08:35:00,66.7,60.8,27.36,West,270,7.0,-999.0,81,-99.99,,,0.00,meteohub,2014-04-21 12:35:00,
2014-04-21 08:40:00,66.7,60.4,27.37,NW,315,6.0,-999.0,80,-99.99,,,0.00,meteohub,2014-04-21 12:40:00,
2014-04-21 08:45:00,67.3,60.6,27.37,NW,315,5.0,-999.0,79,-99.99,,,0.00,meteohub,2014-04-21 12:45:00,
2014-04-21 08:50:00,68.4,61.2,27.37,NW,315,5.0,-999.0,78,-99.99,,,0.00,meteohub,2014-04-21 12:50:00,
2014-04-21 08:55:00,69.1,61.2,27.37,North,0,5.0,-999.0,76,-99.99,,,0.00,meteohub,2014-04-21 12:55:00,
2014-04-21 09:00:00,69.6,61.3,27.37,West,270,4.0,-999.0,75,-99.99,,,0.00,meteohub,2014-04-21 13:00:00,
2014-04-21 09:05:00,70.0,61.0,27.37,NW,315,8.0,-999.0,73,-99.99,,,0.00,meteohub,2014-04-21 13:05:00,
2014-04-21 09:10:00,70.2,60.6,27.37,North,0,6.0,-999.0,72,-99.99,,,0.00,meteohub,2014-04-21 13:10:00,
2014-04-21 09:15:00,69.8,60.4,27.37,NW,315,7.0,-999.0,72,-99.99,,,0.00,meteohub,2014-04-21 13:15:00,